createdAt,value
2019-02-24T00:09:01.767Z,18.63
2019-02-24T00:16:45.619Z,20.27
2019-02-24T00:20:50.155Z,24.67
2019-02-24T00:26:40.668Z,23.30
2019-02-24T00:30:45.208Z,21.80
2019-02-24T00:35:33.661Z,21.63
2019-02-24T00:39:38.211Z,20.50
2019-02-24T00:43:42.778Z,17.20
2019-02-24T00:53:58.044Z,18.67
2019-02-24T00:58:02.608Z,24.07
2019-02-24T01:02:07.139Z,22.50
2019-02-24T01:09:35.340Z,18.60
2019-02-24T01:15:38.368Z,21.33
2019-02-24T01:19:42.943Z,20.57
2019-02-24T01:23:47.545Z,20.77
2019-02-24T01:27:52.087Z,24.77
2019-02-24T01:31:56.637Z,19.73
2019-02-24T01:36:01.152Z,17.70
2019-02-24T01:41:36.570Z,20.77
2019-02-24T01:45:41.438Z,18.03
2019-02-24T01:49:45.978Z,20.60
2019-02-24T01:53:50.623Z,19.27
2019-02-24T01:57:55.219Z,21.60
2019-02-24T02:04:00.439Z,21.27
2019-02-24T02:08:05.015Z,22.40
2019-02-24T02:13:52.994Z,15.73
2019-02-24T02:21:27.483Z,18.40
2019-02-24T02:27:10.543Z,18.37
2019-02-24T02:33:07.419Z,18.23
2019-02-24T02:59:59.180Z,21.80
2019-02-24T03:11:16.612Z,23.93
2019-02-24T03:15:21.162Z,22.70
2019-02-24T03:19:25.708Z,25.33
2019-02-24T03:23:30.291Z,23.45
2019-02-24T03:27:34.845Z,23.90
2019-02-24T03:31:39.410Z,20.97
2019-02-24T03:36:10.950Z,23.07
2019-02-24T03:40:15.500Z,23.90
2019-02-24T03:44:20.067Z,23.50
2019-02-24T03:48:24.594Z,22.52
2019-02-24T03:52:29.127Z,19.97
2019-02-24T03:56:33.657Z,25.87
2019-02-24T04:00:38.215Z,22.63
2019-02-24T04:04:42.764Z,23.63
2019-02-24T04:08:47.316Z,25.80
2019-02-24T04:13:16.393Z,19.40
2019-02-24T04:17:20.946Z,21.70
2019-02-24T04:21:25.491Z,19.77
2019-02-24T04:28:18.246Z,23.00
2019-02-24T04:35:17.316Z,19.73
2019-02-24T04:39:21.813Z,22.83
2019-02-24T04:51:06.637Z,24.77
2019-02-24T04:55:11.129Z,23.40
2019-02-24T04:59:15.684Z,22.65
2019-02-24T05:03:20.215Z,22.47
2019-02-24T05:07:24.810Z,20.63
2019-02-24T05:11:29.445Z,20.90
2019-02-24T05:15:33.960Z,21.55
2019-02-24T05:19:38.546Z,21.20
2019-02-24T05:23:43.206Z,19.70
2019-02-24T05:27:47.724Z,18.13
2019-02-24T05:31:52.273Z,17.57
2019-02-24T05:35:56.766Z,18.77
2019-02-24T05:40:01.313Z,18.93
2019-02-24T05:44:05.846Z,19.03
2019-02-24T05:50:03.698Z,20.00
2019-02-24T05:54:08.232Z,22.02
2019-02-24T05:58:12.815Z,22.07
2019-02-24T06:02:17.354Z,19.60
2019-02-24T06:06:21.863Z,20.10
2019-02-24T06:10:26.432Z,19.20
2019-02-24T06:14:31.003Z,19.53
2019-02-24T06:18:35.551Z,19.07
2019-02-24T06:22:58.477Z,19.23
2019-02-24T06:27:02.983Z,23.70
2019-02-24T06:31:07.517Z,21.68
2019-02-24T06:35:12.071Z,23.95
2019-02-24T06:39:16.620Z,20.77
2019-02-24T06:46:39.976Z,19.53
2019-02-24T06:54:39.600Z,22.03
2019-02-24T06:58:44.151Z,23.70
2019-02-24T07:02:48.683Z,20.53
2019-02-24T07:06:53.215Z,23.23
2019-02-24T07:10:57.778Z,17.43
2019-02-24T07:15:14.519Z,19.37
2019-02-24T07:19:19.084Z,20.13
2019-02-24T07:27:45.847Z,19.70
2019-02-24T07:36:15.760Z,22.23
2019-02-24T07:43:50.407Z,23.57
2019-02-24T07:47:54.914Z,20.77
2019-02-24T07:51:59.453Z,26.13
2019-02-24T07:56:03.994Z,25.20
2019-02-24T08:00:08.672Z,24.20
2019-02-24T08:05:25.443Z,21.23
2019-02-24T08:10:18.099Z,24.73
2019-02-24T08:14:51.135Z,23.37
2019-02-24T08:18:55.671Z,19.20
2019-02-24T08:23:52.586Z,22.90
2019-02-24T08:27:57.144Z,23.43
2019-02-24T08:32:01.701Z,19.87
2019-02-24T08:36:06.255Z,23.23
2019-02-24T08:42:36.458Z,33.97
2019-02-24T08:46:41.019Z,17.60
2019-02-24T08:51:51.764Z,18.13
2019-02-24T08:55:56.308Z,16.17
2019-02-24T09:00:34.496Z,20.30
2019-02-24T09:09:02.396Z,14.30
2019-02-24T09:13:06.932Z,16.97
2019-02-24T09:17:11.471Z,14.67
2019-02-24T09:29:52.764Z,15.93
2019-02-24T09:40:43.166Z,11.07
2019-02-24T09:44:47.698Z,13.93
2019-02-24T09:48:52.254Z,12.77
2019-02-24T09:52:56.810Z,12.20
2019-02-24T10:02:41.141Z,13.17
2019-02-24T10:06:45.708Z,12.90
2019-02-24T10:10:50.215Z,13.60
2019-02-24T10:14:54.759Z,15.43
2019-02-24T10:22:26.844Z,13.30
2019-02-24T10:29:45.755Z,14.03
2019-02-24T10:33:50.306Z,11.17
2019-02-24T10:37:54.858Z,10.33
2019-02-24T10:41:59.387Z,11.57
2019-02-24T10:49:58.874Z,10.77
2019-02-24T10:54:03.433Z,10.40
2019-02-24T10:58:07.963Z,10.43
2019-02-24T11:02:12.521Z,10.30
2019-02-24T11:06:17.015Z,9.60
2019-02-24T11:10:21.603Z,11.63
2019-02-24T11:16:50.321Z,11.67
2019-02-24T11:20:54.864Z,10.47
2019-02-24T11:24:59.461Z,12.17
2019-02-24T11:29:03.976Z,11.93
2019-02-24T11:33:08.505Z,12.43
2019-02-24T11:37:13.021Z,11.25
2019-02-24T11:41:17.601Z,12.05
2019-02-24T11:45:22.150Z,11.37
2019-02-24T11:49:26.707Z,12.35
2019-02-24T11:53:31.268Z,10.95
2019-02-24T11:57:35.786Z,12.10
2019-02-24T12:01:47.313Z,11.83
2019-02-24T12:05:46.544Z,10.08
2019-02-24T12:09:51.153Z,9.70
2019-02-24T12:13:55.715Z,13.55
2019-02-24T12:18:00.223Z,11.05
2019-02-24T12:22:04.826Z,13.30
2019-02-24T12:26:09.443Z,11.30
2019-02-24T12:30:14.024Z,12.00
2019-02-24T12:34:18.572Z,10.38
2019-02-24T12:38:23.096Z,10.53
2019-02-24T12:42:27.677Z,9.53
2019-02-24T12:46:32.247Z,9.08
2019-02-24T12:50:36.795Z,9.43
2019-02-24T12:54:41.351Z,8.43
2019-02-24T12:58:45.864Z,9.73
2019-02-24T13:02:50.431Z,9.88
2019-02-24T13:06:54.967Z,9.73
2019-02-24T13:10:59.544Z,9.20
2019-02-24T13:15:04.097Z,10.20
2019-02-24T13:19:08.639Z,10.28
2019-02-24T13:23:13.271Z,11.47
2019-02-24T13:27:17.807Z,9.43
2019-02-24T13:31:22.352Z,9.90
2019-02-24T13:35:26.916Z,16.83
2019-02-24T13:39:31.461Z,10.90
2019-02-24T13:43:36.017Z,12.17
2019-02-24T13:47:40.557Z,10.57
2019-02-24T13:51:45.103Z,10.13
2019-02-24T13:55:49.660Z,11.17
2019-02-24T13:59:54.193Z,10.97
2019-02-24T14:03:58.748Z,10.83
2019-02-24T14:08:03.340Z,8.67
2019-02-24T14:12:07.884Z,9.10
2019-02-24T14:16:12.447Z,9.00
2019-02-24T14:20:16.977Z,11.03
2019-02-24T14:24:21.531Z,7.80
2019-02-24T14:28:26.088Z,8.98
2019-02-24T14:32:32.981Z,8.13
2019-02-24T14:36:36.863Z,10.50
2019-02-24T14:40:41.369Z,8.47
2019-02-24T14:44:46.016Z,9.43
2019-02-24T14:48:54.554Z,10.07
2019-02-24T14:52:59.175Z,9.70
2019-02-24T14:57:03.744Z,12.07
2019-02-24T15:01:08.287Z,10.13
2019-02-24T15:05:13.015Z,10.93
2019-02-24T15:09:17.615Z,10.50
2019-02-24T15:13:22.179Z,12.87
2019-02-24T15:17:26.744Z,10.30
2019-02-24T15:21:31.304Z,10.73
2019-02-24T15:25:35.871Z,10.18
2019-02-24T15:29:40.423Z,9.20
2019-02-24T15:33:44.999Z,10.40
2019-02-24T15:37:49.552Z,9.17
2019-02-24T15:41:54.100Z,10.20
2019-02-24T15:45:58.651Z,8.47
2019-02-24T15:50:03.216Z,11.03
2019-02-24T15:54:07.765Z,8.70
2019-02-24T15:58:12.339Z,9.37
2019-02-24T16:02:16.876Z,7.60
2019-02-24T16:06:21.423Z,8.77
2019-02-24T16:10:26.071Z,8.47
2019-02-24T16:14:31.197Z,9.17
2019-02-24T16:18:35.781Z,10.10
2019-02-24T16:22:40.324Z,7.63
2019-02-24T16:26:44.935Z,11.03
2019-02-24T16:30:49.618Z,8.20
2019-02-24T16:34:54.168Z,11.03
2019-02-24T16:38:58.715Z,7.50
2019-02-24T16:43:03.222Z,11.10
2019-02-24T16:47:07.768Z,11.00
2019-02-24T16:51:12.344Z,7.37
2019-02-24T16:55:16.936Z,10.47
2019-02-24T16:59:21.493Z,8.77
2019-02-24T17:03:26.015Z,10.73
2019-02-24T17:07:30.607Z,11.37
2019-02-24T17:11:35.174Z,9.90
2019-02-24T17:15:39.725Z,9.23
2019-02-24T17:19:44.379Z,9.80
2019-02-24T17:23:50.141Z,10.27
2019-02-24T17:27:55.084Z,9.50
2019-02-24T17:31:59.662Z,10.60
2019-02-24T17:36:04.191Z,10.93
2019-02-24T17:40:10.151Z,8.90
2019-02-24T17:44:14.691Z,8.90
2019-02-24T17:48:19.872Z,8.40
2019-02-24T17:52:24.415Z,10.05
2019-02-24T17:56:28.977Z,9.10
2019-02-24T18:00:34.359Z,11.55
2019-02-24T18:04:38.873Z,14.53
2019-02-24T18:08:43.457Z,12.00
2019-02-24T18:12:48.003Z,13.80
2019-02-24T18:16:52.569Z,13.07
2019-02-24T18:20:57.132Z,14.17
2019-02-24T18:25:03.507Z,13.25
2019-02-24T18:29:07.860Z,13.33
2019-02-24T18:33:12.427Z,12.57
2019-02-24T18:37:16.980Z,12.73
2019-02-24T18:41:21.540Z,10.63
2019-02-24T18:53:33.011Z,11.73
2019-02-24T18:57:37.584Z,14.97
2019-02-24T19:01:42.161Z,13.40
2019-02-24T19:05:46.701Z,14.23
2019-02-24T19:09:51.246Z,14.93
2019-02-24T19:13:55.824Z,11.93
2019-02-24T19:18:00.616Z,14.10
2019-02-24T19:22:07.148Z,12.13
2019-02-24T19:26:11.611Z,12.68
2019-02-24T19:30:16.544Z,14.33
2019-02-24T19:34:21.209Z,13.70
2019-02-24T19:38:25.999Z,13.18
2019-02-24T19:42:30.735Z,13.65
2019-02-24T19:46:35.327Z,14.18
2019-02-24T19:50:40.018Z,13.73
2019-02-24T19:54:44.776Z,12.20
2019-02-24T19:58:49.529Z,14.05
2019-02-24T20:02:54.390Z,12.53
2019-02-24T20:06:58.995Z,14.00
2019-02-24T20:11:03.765Z,12.75
2019-02-24T20:15:10.273Z,12.95
2019-02-24T20:19:14.910Z,14.75
2019-02-24T20:23:19.502Z,14.95
2019-02-24T20:27:24.014Z,12.63
2019-02-24T20:31:28.640Z,11.43
2019-02-24T20:35:33.209Z,11.93
2019-02-24T20:39:37.799Z,12.93
2019-02-24T20:43:42.365Z,14.50
2019-02-24T20:47:46.868Z,14.53
2019-02-24T20:51:51.428Z,15.95
2019-02-24T20:55:55.978Z,15.38
2019-02-24T21:00:00.546Z,18.02
2019-02-24T21:04:05.113Z,14.15
2019-02-24T21:08:09.655Z,18.60
2019-02-24T21:12:14.187Z,16.30
2019-02-24T21:16:18.755Z,14.87
2019-02-24T21:20:25.202Z,15.28
2019-02-24T21:24:29.765Z,14.23
2019-02-24T21:28:34.316Z,17.02
2019-02-24T21:32:38.950Z,17.37
2019-02-24T21:36:43.512Z,17.05
2019-02-24T21:40:48.105Z,17.02
2019-02-24T21:44:52.631Z,18.10
2019-02-24T21:48:57.204Z,18.17
2019-02-24T21:53:01.796Z,19.20
2019-02-24T21:57:06.336Z,19.17
2019-02-24T22:01:10.913Z,16.53
2019-02-24T22:05:15.428Z,17.70
2019-02-24T22:09:20.067Z,18.12
2019-02-24T22:13:24.634Z,19.40
2019-02-24T22:17:29.167Z,16.85
2019-02-24T22:21:33.749Z,18.00
2019-02-24T22:25:38.276Z,16.77
2019-02-24T22:29:42.824Z,16.10
2019-02-24T22:33:47.409Z,15.13
2019-02-24T22:37:51.963Z,17.80
2019-02-24T22:41:56.834Z,17.10
2019-02-24T22:46:01.356Z,15.63
2019-02-24T22:50:06.228Z,19.70
2019-02-24T22:54:10.774Z,18.23
2019-02-24T22:58:15.359Z,16.62
2019-02-24T23:02:21.512Z,15.45
2019-02-24T23:06:26.064Z,18.12
2019-02-24T23:10:30.654Z,16.77
2019-02-24T23:14:35.208Z,17.35
2019-02-24T23:18:40.071Z,22.80
2019-02-24T23:22:44.599Z,21.23
2019-02-24T23:26:49.142Z,20.80
2019-02-24T23:30:53.695Z,17.10
2019-02-24T23:34:58.247Z,17.65
2019-02-24T23:39:02.805Z,17.07
2019-02-24T23:43:07.310Z,14.35
2019-02-24T23:47:11.901Z,15.57
2019-02-24T23:51:16.446Z,13.00
2019-02-24T23:55:21.025Z,14.80
2019-02-24T23:59:25.574Z,15.03
